createdAt,value
2019-01-05T00:05:38.273Z,99667.36
2019-01-05T00:11:04.925Z,99663.09
2019-01-05T00:16:38.170Z,99653.03
2019-01-05T00:22:10.662Z,99652.53
2019-01-05T00:27:54.882Z,99653.70
2019-01-05T00:33:39.782Z,99643.61
2019-01-05T00:39:19.058Z,99641.41
2019-01-05T00:44:49.479Z,99626.38
2019-01-05T00:50:13.807Z,99628.97
2019-01-05T00:55:57.721Z,99622.30
2019-01-05T01:01:25.249Z,99613.45
2019-01-05T01:06:56.398Z,99611.52
2019-01-05T01:12:21.286Z,99598.19
2019-01-05T01:17:52.316Z,99588.73
2019-01-05T01:23:17.294Z,99590.92
2019-01-05T01:28:43.010Z,99580.89
2019-01-05T01:34:09.709Z,99575.78
2019-01-05T01:39:43.661Z,99567.58
2019-01-05T01:45:07.079Z,99552.00
2019-01-05T01:50:30.988Z,99537.80
2019-01-05T01:56:01.069Z,99533.27
2019-01-05T02:01:27.157Z,99527.78
2019-01-05T02:06:57.657Z,99502.17
2019-01-05T02:12:36.817Z,99488.36
2019-01-05T02:24:31.489Z,99455.48
2019-01-05T02:30:50.549Z,99456.81
2019-01-05T02:36:42.634Z,99433.54
2019-01-05T02:43:02.841Z,99414.60
2019-01-05T02:49:24.729Z,99402.73
2019-01-05T02:55:33.139Z,99389.34
2019-01-05T03:01:49.817Z,99372.33
2019-01-05T03:07:54.232Z,99376.63
2019-01-05T03:13:41.161Z,99363.73
2019-01-05T03:20:06.157Z,99361.06
2019-01-05T03:26:08.448Z,99337.78
2019-01-05T03:32:05.069Z,99331.67
2019-01-05T03:38:03.872Z,99326.91
2019-01-05T03:44:17.239Z,99323.48
2019-01-05T03:50:10.285Z,99311.60
2019-01-05T03:55:57.407Z,99305.59
2019-01-05T04:01:46.548Z,99290.64
2019-01-05T04:08:06.998Z,99282.85
2019-01-05T04:13:59.394Z,99264.17
2019-01-05T04:20:04.174Z,99253.06
2019-01-05T04:26:23.455Z,99247.15
2019-01-05T04:32:30.449Z,99238.23
2019-01-05T04:38:57.688Z,99222.03
2019-01-05T04:45:06.505Z,99221.29
2019-01-05T04:51:27.945Z,99210.88
2019-01-05T04:57:41.304Z,99226.16
2019-01-05T05:03:52.196Z,99208.64
2019-01-05T05:15:54.453Z,99203.55
2019-01-05T05:22:19.790Z,99191.33
2019-01-05T05:28:26.791Z,99186.98
2019-01-05T05:34:29.356Z,99172.70
2019-01-05T05:40:36.289Z,99166.72
2019-01-05T05:46:46.385Z,99173.84
2019-01-05T05:52:59.888Z,99174.62
2019-01-05T05:59:20.703Z,99165.28
2019-01-05T06:05:57.004Z,99170.62
2019-01-05T06:12:29.592Z,99165.86
2019-01-05T06:18:29.005Z,99180.05
2019-01-05T06:24:37.634Z,99170.45
2019-01-05T06:30:38.641Z,99161.79
2019-01-05T06:42:43.838Z,99133.13
2019-01-05T06:48:47.749Z,99147.00
2019-01-05T06:55:17.612Z,99152.23
2019-01-05T07:01:56.054Z,99154.64
2019-01-05T07:07:54.879Z,99152.92
2019-01-05T07:14:17.305Z,99149.98
2019-01-05T07:20:22.930Z,99156.06
2019-01-05T07:26:25.906Z,99142.07
2019-01-05T07:32:23.635Z,99146.64
2019-01-05T07:38:34.949Z,99155.41
2019-01-05T07:44:56.718Z,99155.77
2019-01-05T07:51:09.855Z,99167.70
2019-01-05T07:57:22.013Z,99173.50
2019-01-05T08:03:45.033Z,99172.83
2019-01-05T08:09:48.463Z,99180.83
2019-01-05T08:16:01.319Z,99188.94
2019-01-05T08:21:58.013Z,99188.18
2019-01-05T08:27:49.327Z,99204.94
2019-01-05T08:34:14.895Z,99207.52
2019-01-05T08:40:13.827Z,99212.08
2019-01-05T08:46:16.367Z,99216.58
2019-01-05T08:52:34.093Z,99216.73
2019-01-05T08:58:59.453Z,99232.64
2019-01-05T09:04:53.177Z,99243.12
2019-01-05T09:10:49.966Z,99231.64
2019-01-05T09:17:21.177Z,99247.29
2019-01-05T09:23:44.365Z,99233.77
2019-01-05T09:29:53.637Z,99233.77
2019-01-05T09:36:02.880Z,99230.41
2019-01-05T09:42:08.501Z,99242.16
2019-01-05T09:48:30.282Z,99245.11
2019-01-05T09:54:42.947Z,99248.28
2019-01-05T10:00:48.883Z,99262.24
2019-01-05T10:06:58.144Z,99273.83
2019-01-05T10:13:01.623Z,99279.39
2019-01-05T10:19:01.309Z,99271.67
2019-01-05T10:25:23.573Z,99271.19
2019-01-05T10:31:32.742Z,99263.37
2019-01-05T10:37:55.870Z,99275.43
2019-01-05T10:44:09.572Z,99276.66
2019-01-05T10:50:32.654Z,99271.25
2019-01-05T10:56:25.820Z,99276.60
2019-01-05T11:18:51.369Z,99278.91
2019-01-05T11:25:16.597Z,99287.05
2019-01-05T11:31:22.066Z,99279.81
2019-01-05T11:37:22.013Z,99279.81
2019-01-05T11:43:42.003Z,99289.52
2019-01-05T11:49:45.812Z,99290.34
2019-01-05T11:55:44.166Z,99288.70
2019-01-05T12:01:49.133Z,99288.17
2019-01-05T12:07:48.132Z,99288.17
2019-01-05T12:13:58.934Z,99294.21
2019-01-05T12:20:12.190Z,99291.13
2019-01-05T12:26:09.660Z,99300.92
2019-01-05T12:32:35.640Z,99300.92
2019-01-05T12:38:35.354Z,99311.25
2019-01-05T12:50:58.024Z,99336.16
2019-01-05T12:57:19.719Z,99334.52
2019-01-05T13:03:37.433Z,99349.24
2019-01-05T13:10:24.956Z,99349.24
2019-01-05T13:16:32.691Z,99370.00
2019-01-05T13:22:25.382Z,99372.89
2019-01-05T13:28:24.257Z,99372.89
2019-01-05T13:34:44.246Z,99387.67
2019-01-05T13:40:35.812Z,99390.79
2019-01-05T13:47:01.032Z,99396.58
2019-01-05T13:52:55.639Z,99396.58
2019-01-05T13:58:26.799Z,99409.29
2019-01-05T14:04:04.261Z,99409.29
2019-01-05T14:09:28.728Z,99401.98
2019-01-05T14:14:55.008Z,99413.38
2019-01-05T14:20:28.498Z,99399.84
2019-01-05T14:25:52.668Z,99419.72
2019-01-05T14:31:16.707Z,99420.44
2019-01-05T14:36:50.345Z,99429.02
2019-01-05T14:42:08.346Z,99420.46
2019-01-05T14:47:36.139Z,99431.30
2019-01-05T14:52:59.437Z,99420.61
2019-01-05T14:58:22.795Z,99442.30
2019-01-05T15:04:00.020Z,99437.01
2019-01-05T15:09:42.014Z,99445.80
2019-01-05T15:15:06.014Z,99444.22
2019-01-05T15:20:29.524Z,99444.22
2019-01-05T15:25:54.788Z,99450.36
2019-01-05T15:31:18.222Z,99449.23
2019-01-05T15:36:42.752Z,99451.32
2019-01-05T15:42:06.663Z,99461.03
2019-01-05T15:47:34.773Z,99452.41
2019-01-05T15:52:58.524Z,99451.73
2019-01-05T15:58:29.183Z,99448.11
2019-01-05T16:03:53.106Z,99467.33
2019-01-05T16:09:27.894Z,99487.23
2019-01-05T16:14:55.411Z,99472.23
2019-01-05T16:20:19.713Z,99480.94
2019-01-05T16:25:37.838Z,99484.56
2019-01-05T16:31:11.586Z,99494.30
2019-01-05T16:36:35.043Z,99498.04
2019-01-05T16:41:59.995Z,99501.86
2019-01-05T16:47:41.072Z,99502.98
2019-01-05T16:53:04.449Z,99518.02
2019-01-05T16:58:23.604Z,99518.88
2019-01-05T17:03:46.872Z,99512.73
2019-01-05T17:09:11.302Z,99531.55
2019-01-05T17:14:37.498Z,99537.57
2019-01-05T17:20:13.364Z,99537.16
2019-01-05T17:25:55.388Z,99517.70
2019-01-05T17:31:36.122Z,99517.70
2019-01-05T17:36:59.789Z,99532.41
2019-01-05T17:42:25.700Z,99531.27
2019-01-05T17:47:49.520Z,99526.00
2019-01-05T17:53:29.304Z,99512.45
2019-01-05T17:59:02.234Z,99518.56
2019-01-05T18:04:29.262Z,99518.66
2019-01-05T18:10:09.166Z,99516.58
2019-01-05T18:15:54.429Z,99522.17
2019-01-05T18:21:19.185Z,99517.72
2019-01-05T18:26:52.958Z,99520.27
2019-01-05T18:32:29.634Z,99515.67
2019-01-05T18:37:55.026Z,99523.95
2019-01-05T18:43:18.514Z,99528.82
2019-01-05T18:48:56.992Z,99528.82
2019-01-05T18:54:23.531Z,99529.73
2019-01-05T18:59:48.287Z,99531.72
2019-01-05T19:05:31.380Z,99539.48
2019-01-05T19:11:11.704Z,99541.39
2019-01-05T19:22:07.587Z,99552.44
2019-01-05T19:27:39.194Z,99563.17
2019-01-05T19:33:03.205Z,99557.75
2019-01-05T19:43:56.136Z,99562.74
2019-01-05T19:49:21.139Z,99565.48
2019-01-05T19:54:45.983Z,99568.33
2019-01-05T20:00:12.045Z,99575.67
2019-01-05T20:05:46.949Z,99586.94
2019-01-05T20:11:12.595Z,99602.43
2019-01-05T20:16:40.424Z,99592.20
2019-01-05T20:22:06.313Z,99614.48
2019-01-05T20:27:34.183Z,99603.00
2019-01-05T20:33:07.115Z,99603.38
2019-01-05T20:38:43.321Z,99595.20
2019-01-05T20:44:09.323Z,99593.05
2019-01-05T20:49:44.529Z,99595.07
2019-01-05T20:55:08.659Z,99602.90
2019-01-05T21:00:32.358Z,99610.31
2019-01-05T21:06:06.060Z,99616.55
2019-01-05T21:11:34.982Z,99623.17
2019-01-05T21:16:58.698Z,99638.33
2019-01-05T21:22:42.660Z,99655.58
2019-01-05T21:28:13.081Z,99648.05
2019-01-05T21:33:39.891Z,99648.93
2019-01-05T21:39:20.621Z,99638.89
2019-01-05T21:44:44.022Z,99641.04
2019-01-05T21:50:15.371Z,99648.83
2019-01-05T21:55:38.469Z,99663.55
2019-01-05T22:01:09.506Z,99666.41
2019-01-05T22:06:33.052Z,99677.48
2019-01-05T22:12:08.235Z,99680.54
2019-01-05T22:17:33.027Z,99687.55
2019-01-05T22:22:59.002Z,99700.75
2019-01-05T22:28:20.558Z,99687.22
2019-01-05T22:33:51.149Z,99693.94
2019-01-05T22:39:15.229Z,99698.68
2019-01-05T22:44:41.275Z,99699.66
2019-01-05T22:50:23.474Z,99716.59
2019-01-05T22:56:04.486Z,99712.28
2019-01-05T23:01:29.774Z,99719.87
2019-01-05T23:06:52.410Z,99714.23
2019-01-05T23:12:16.171Z,99721.78
2019-01-05T23:17:55.985Z,99709.60
2019-01-05T23:23:26.933Z,99717.39
2019-01-05T23:28:55.330Z,99726.95
2019-01-05T23:34:16.137Z,99735.95
2019-01-05T23:39:40.107Z,99738.81
2019-01-05T23:56:20.332Z,99754.66
